sensor_id;sensor_type;location;lat;lon;timestamp;P1;durP1;ratioP1;P2;durP2;ratioP2
7931;SDS011;4011;49.424;10.894;2023-11-18T00:01:25;3.78;;;2.63;;
7931;SDS011;4011;49.424;10.894;2023-11-18T00:06:47;4.07;;;2.72;;
7931;SDS011;4011;49.424;10.894;2023-11-18T00:12:09;3.60;;;2.88;;
7931;SDS011;4011;49.424;10.894;2023-11-18T00:17:32;4.45;;;2.95;;
7931;SDS011;4011;49.424;10.894;2023-11-18T00:22:53;3.97;;;2.40;;
7931;SDS011;4011;49.424;10.894;2023-11-18T00:28:15;4.18;;;2.65;;
7931;SDS011;4011;49.424;10.894;2023-11-18T00:33:40;4.30;;;2.88;;
7931;SDS011;4011;49.424;10.894;2023-11-18T00:39:02;4.10;;;3.05;;
7931;SDS011;4011;49.424;10.894;2023-11-18T00:44:24;3.72;;;2.50;;
7931;SDS011;4011;49.424;10.894;2023-11-18T00:49:46;3.95;;;2.65;;
7931;SDS011;4011;49.424;10.894;2023-11-18T00:55:09;4.40;;;2.70;;
7931;SDS011;4011;49.424;10.894;2023-11-18T01:00:31;3.70;;;3.28;;
7931;SDS011;4011;49.424;10.894;2023-11-18T01:05:53;3.67;;;2.60;;
7931;SDS011;4011;49.424;10.894;2023-11-18T01:11:15;3.78;;;2.67;;
7931;SDS011;4011;49.424;10.894;2023-11-18T01:16:38;3.78;;;2.38;;
7931;SDS011;4011;49.424;10.894;2023-11-18T01:22:01;3.85;;;2.80;;
7931;SDS011;4011;49.424;10.894;2023-11-18T01:27:25;3.30;;;2.47;;
7931;SDS011;4011;49.424;10.894;2023-11-18T01:32:47;3.42;;;2.38;;
7931;SDS011;4011;49.424;10.894;2023-11-18T01:38:10;3.63;;;2.35;;
7931;SDS011;4011;49.424;10.894;2023-11-18T01:43:32;3.53;;;2.70;;
7931;SDS011;4011;49.424;10.894;2023-11-18T01:48:53;4.13;;;2.80;;
7931;SDS011;4011;49.424;10.894;2023-11-18T01:54:16;3.15;;;2.35;;
7931;SDS011;4011;49.424;10.894;2023-11-18T01:59:39;3.83;;;2.63;;
7931;SDS011;4011;49.424;10.894;2023-11-18T02:05:00;3.83;;;2.53;;
7931;SDS011;4011;49.424;10.894;2023-11-18T02:10:23;4.07;;;3.22;;
7931;SDS011;4011;49.424;10.894;2023-11-18T02:15:45;3.75;;;2.20;;
7931;SDS011;4011;49.424;10.894;2023-11-18T02:21:06;3.85;;;2.20;;
7931;SDS011;4011;49.424;10.894;2023-11-18T02:26:30;3.67;;;2.38;;
7931;SDS011;4011;49.424;10.894;2023-11-18T02:31:52;4.05;;;2.92;;
7931;SDS011;4011;49.424;10.894;2023-11-18T02:37:15;3.50;;;2.60;;
7931;SDS011;4011;49.424;10.894;2023-11-18T02:42:38;3.78;;;2.55;;
7931;SDS011;4011;49.424;10.894;2023-11-18T02:48:00;3.03;;;2.10;;
7931;SDS011;4011;49.424;10.894;2023-11-18T02:53:21;3.70;;;2.45;;
7931;SDS011;4011;49.424;10.894;2023-11-18T02:58:44;3.88;;;2.85;;
7931;SDS011;4011;49.424;10.894;2023-11-18T03:04:05;3.35;;;2.42;;
7931;SDS011;4011;49.424;10.894;2023-11-18T03:09:27;3.30;;;2.22;;
7931;SDS011;4011;49.424;10.894;2023-11-18T03:14:50;3.70;;;2.38;;
7931;SDS011;4011;49.424;10.894;2023-11-18T03:20:11;3.97;;;2.92;;
7931;SDS011;4011;49.424;10.894;2023-11-18T03:25:36;3.40;;;2.03;;
7931;SDS011;4011;49.424;10.894;2023-11-18T03:31:00;3.05;;;2.30;;
7931;SDS011;4011;49.424;10.894;2023-11-18T03:36:21;3.40;;;2.30;;
7931;SDS011;4011;49.424;10.894;2023-11-18T03:41:42;3.28;;;2.70;;
7931;SDS011;4011;49.424;10.894;2023-11-18T03:47:06;3.75;;;2.50;;
7931;SDS011;4011;49.424;10.894;2023-11-18T03:52:27;3.22;;;2.10;;
7931;SDS011;4011;49.424;10.894;2023-11-18T03:57:49;3.58;;;2.13;;
7931;SDS011;4011;49.424;10.894;2023-11-18T04:03:11;3.53;;;2.40;;
7931;SDS011;4011;49.424;10.894;2023-11-18T04:08:33;4.10;;;2.75;;
7931;SDS011;4011;49.424;10.894;2023-11-18T04:13:54;3.10;;;2.20;;
7931;SDS011;4011;49.424;10.894;2023-11-18T04:19:17;3.90;;;2.15;;
7931;SDS011;4011;49.424;10.894;2023-11-18T04:24:38;3.10;;;2.20;;
7931;SDS011;4011;49.424;10.894;2023-11-18T04:30:00;3.65;;;2.72;;
7931;SDS011;4011;49.424;10.894;2023-11-18T04:35:22;3.13;;;2.40;;
7931;SDS011;4011;49.424;10.894;2023-11-18T04:40:44;2.92;;;2.13;;
7931;SDS011;4011;49.424;10.894;2023-11-18T04:46:06;3.17;;;2.22;;
7931;SDS011;4011;49.424;10.894;2023-11-18T04:51:29;3.42;;;2.35;;
7931;SDS011;4011;49.424;10.894;2023-11-18T04:56:50;4.07;;;2.45;;
7931;SDS011;4011;49.424;10.894;2023-11-18T05:02:12;3.45;;;2.10;;
7931;SDS011;4011;49.424;10.894;2023-11-18T05:07:35;3.38;;;2.17;;
7931;SDS011;4011;49.424;10.894;2023-11-18T05:12:56;2.70;;;1.92;;
7931;SDS011;4011;49.424;10.894;2023-11-18T05:18:17;3.00;;;2.63;;
7931;SDS011;4011;49.424;10.894;2023-11-18T05:23:40;3.22;;;2.05;;
7931;SDS011;4011;49.424;10.894;2023-11-18T05:29:01;3.10;;;2.17;;
7931;SDS011;4011;49.424;10.894;2023-11-18T05:34:23;3.53;;;2.22;;
7931;SDS011;4011;49.424;10.894;2023-11-18T05:39:46;5.18;;;2.90;;
7931;SDS011;4011;49.424;10.894;2023-11-18T05:45:09;4.65;;;2.65;;
7931;SDS011;4011;49.424;10.894;2023-11-18T05:50:37;2.83;;;2.03;;
7931;SDS011;4011;49.424;10.894;2023-11-18T05:56:00;3.38;;;2.10;;
7931;SDS011;4011;49.424;10.894;2023-11-18T06:01:21;3.65;;;2.85;;
7931;SDS011;4011;49.424;10.894;2023-11-18T06:06:43;3.20;;;2.30;;
7931;SDS011;4011;49.424;10.894;2023-11-18T06:12:06;4.60;;;2.40;;
7931;SDS011;4011;49.424;10.894;2023-11-18T06:17:29;3.25;;;2.30;;
7931;SDS011;4011;49.424;10.894;2023-11-18T06:22:50;4.40;;;2.47;;
7931;SDS011;4011;49.424;10.894;2023-11-18T06:28:13;3.65;;;2.78;;
7931;SDS011;4011;49.424;10.894;2023-11-18T06:33:39;3.50;;;2.60;;
7931;SDS011;4011;49.424;10.894;2023-11-18T06:39:03;3.85;;;2.42;;
7931;SDS011;4011;49.424;10.894;2023-11-18T06:44:28;4.00;;;2.90;;
7931;SDS011;4011;49.424;10.894;2023-11-18T06:49:50;3.65;;;2.60;;
7931;SDS011;4011;49.424;10.894;2023-11-18T06:55:14;4.68;;;2.70;;
7931;SDS011;4011;49.424;10.894;2023-11-18T07:00:37;4.63;;;2.92;;
7931;SDS011;4011;49.424;10.894;2023-11-18T07:05:59;4.82;;;3.40;;
7931;SDS011;4011;49.424;10.894;2023-11-18T07:11:20;4.53;;;3.70;;
7931;SDS011;4011;49.424;10.894;2023-11-18T07:16:43;5.75;;;3.47;;
7931;SDS011;4011;49.424;10.894;2023-11-18T07:22:04;6.00;;;3.20;;
7931;SDS011;4011;49.424;10.894;2023-11-18T07:27:26;4.60;;;3.45;;
7931;SDS011;4011;49.424;10.894;2023-11-18T07:32:49;5.25;;;3.72;;
7931;SDS011;4011;49.424;10.894;2023-11-18T07:38:11;4.18;;;3.10;;
7931;SDS011;4011;49.424;10.894;2023-11-18T07:43:32;5.00;;;3.03;;
7931;SDS011;4011;49.424;10.894;2023-11-18T07:48:55;3.53;;;2.70;;
7931;SDS011;4011;49.424;10.894;2023-11-18T07:54:16;4.47;;;3.25;;
7931;SDS011;4011;49.424;10.894;2023-11-18T07:59:38;4.75;;;3.08;;
7931;SDS011;4011;49.424;10.894;2023-11-18T08:05:01;3.67;;;2.70;;
7931;SDS011;4011;49.424;10.894;2023-11-18T08:10:23;3.83;;;2.45;;
7931;SDS011;4011;49.424;10.894;2023-11-18T08:15:45;3.28;;;2.55;;
7931;SDS011;4011;49.424;10.894;2023-11-18T08:21:07;4.85;;;3.20;;
7931;SDS011;4011;49.424;10.894;2023-11-18T08:26:29;5.20;;;2.45;;
7931;SDS011;4011;49.424;10.894;2023-11-18T08:31:50;4.03;;;2.67;;
7931;SDS011;4011;49.424;10.894;2023-11-18T08:37:13;3.90;;;2.63;;
7931;SDS011;4011;49.424;10.894;2023-11-18T08:42:34;3.88;;;3.25;;
7931;SDS011;4011;49.424;10.894;2023-11-18T08:47:56;3.72;;;2.92;;
7931;SDS011;4011;49.424;10.894;2023-11-18T08:53:19;4.53;;;2.90;;
7931;SDS011;4011;49.424;10.894;2023-11-18T08:58:46;4.00;;;3.22;;
7931;SDS011;4011;49.424;10.894;2023-11-18T09:04:09;4.72;;;3.75;;
7931;SDS011;4011;49.424;10.894;2023-11-18T09:09:32;4.55;;;3.22;;
7931;SDS011;4011;49.424;10.894;2023-11-18T09:14:53;5.05;;;3.42;;
7931;SDS011;4011;49.424;10.894;2023-11-18T09:20:15;4.85;;;3.28;;
7931;SDS011;4011;49.424;10.894;2023-11-18T09:25:41;5.35;;;4.10;;
7931;SDS011;4011;49.424;10.894;2023-11-18T09:31:07;4.43;;;3.20;;
7931;SDS011;4011;49.424;10.894;2023-11-18T09:36:31;5.05;;;3.80;;
7931;SDS011;4011;49.424;10.894;2023-11-18T09:41:55;5.18;;;3.80;;
7931;SDS011;4011;49.424;10.894;2023-11-18T09:47:16;4.50;;;3.75;;
7931;SDS011;4011;49.424;10.894;2023-11-18T09:52:47;4.10;;;3.53;;
7931;SDS011;4011;49.424;10.894;2023-11-18T09:58:15;4.40;;;3.50;;
7931;SDS011;4011;49.424;10.894;2023-11-18T10:03:37;4.93;;;4.00;;
7931;SDS011;4011;49.424;10.894;2023-11-18T10:08:58;4.38;;;3.90;;
7931;SDS011;4011;49.424;10.894;2023-11-18T10:14:36;5.13;;;3.70;;
7931;SDS011;4011;49.424;10.894;2023-11-18T10:19:59;4.57;;;3.63;;
7931;SDS011;4011;49.424;10.894;2023-11-18T10:25:32;5.60;;;3.85;;
7931;SDS011;4011;49.424;10.894;2023-11-18T10:30:56;4.50;;;3.33;;
7931;SDS011;4011;49.424;10.894;2023-11-18T10:36:19;4.90;;;3.47;;
7931;SDS011;4011;49.424;10.894;2023-11-18T10:41:42;5.13;;;4.00;;
7931;SDS011;4011;49.424;10.894;2023-11-18T10:47:07;4.43;;;3.53;;
7931;SDS011;4011;49.424;10.894;2023-11-18T10:52:31;4.68;;;3.60;;
7931;SDS011;4011;49.424;10.894;2023-11-18T10:57:55;4.07;;;3.00;;
7931;SDS011;4011;49.424;10.894;2023-11-18T11:03:20;4.82;;;3.83;;
7931;SDS011;4011;49.424;10.894;2023-11-18T11:08:43;4.07;;;3.05;;
7931;SDS011;4011;49.424;10.894;2023-11-18T11:14:06;4.00;;;3.45;;
7931;SDS011;4011;49.424;10.894;2023-11-18T11:19:33;4.40;;;3.15;;
7931;SDS011;4011;49.424;10.894;2023-11-18T11:25:07;5.07;;;3.40;;
7931;SDS011;4011;49.424;10.894;2023-11-18T11:30:36;4.65;;;3.10;;
7931;SDS011;4011;49.424;10.894;2023-11-18T11:36:06;5.13;;;2.90;;
7931;SDS011;4011;49.424;10.894;2023-11-18T11:41:32;5.28;;;3.22;;
7931;SDS011;4011;49.424;10.894;2023-11-18T11:46:54;4.70;;;2.88;;
7931;SDS011;4011;49.424;10.894;2023-11-18T11:52:19;4.82;;;3.00;;
7931;SDS011;4011;49.424;10.894;2023-11-18T11:57:50;5.10;;;3.40;;
7931;SDS011;4011;49.424;10.894;2023-11-18T12:03:13;4.45;;;2.78;;
7931;SDS011;4011;49.424;10.894;2023-11-18T12:08:40;3.83;;;2.97;;
7931;SDS011;4011;49.424;10.894;2023-11-18T12:14:03;4.50;;;3.25;;
7931;SDS011;4011;49.424;10.894;2023-11-18T12:19:33;4.20;;;3.03;;
7931;SDS011;4011;49.424;10.894;2023-11-18T12:30:54;4.25;;;2.90;;
7931;SDS011;4011;49.424;10.894;2023-11-18T12:42:04;4.95;;;3.30;;
7931;SDS011;4011;49.424;10.894;2023-11-18T12:47:33;4.20;;;2.75;;
7931;SDS011;4011;49.424;10.894;2023-11-18T12:52:56;3.65;;;2.67;;
7931;SDS011;4011;49.424;10.894;2023-11-18T12:58:20;3.90;;;3.35;;
7931;SDS011;4011;49.424;10.894;2023-11-18T13:03:47;4.65;;;2.85;;
7931;SDS011;4011;49.424;10.894;2023-11-18T13:14:31;4.20;;;2.70;;
7931;SDS011;4011;49.424;10.894;2023-11-18T13:19:57;3.75;;;3.00;;
7931;SDS011;4011;49.424;10.894;2023-11-18T13:25:19;4.70;;;2.58;;
7931;SDS011;4011;49.424;10.894;2023-11-18T13:30:41;4.13;;;2.80;;
7931;SDS011;4011;49.424;10.894;2023-11-18T13:36:05;4.15;;;2.58;;
7931;SDS011;4011;49.424;10.894;2023-11-18T13:41:30;3.85;;;2.60;;
7931;SDS011;4011;49.424;10.894;2023-11-18T13:46:53;3.58;;;2.55;;
7931;SDS011;4011;49.424;10.894;2023-11-18T13:52:16;3.38;;;2.30;;
7931;SDS011;4011;49.424;10.894;2023-11-18T13:57:38;3.20;;;2.33;;
7931;SDS011;4011;49.424;10.894;2023-11-18T14:03:00;4.85;;;3.53;;
7931;SDS011;4011;49.424;10.894;2023-11-18T14:08:25;3.97;;;2.80;;
7931;SDS011;4011;49.424;10.894;2023-11-18T14:13:47;4.50;;;2.78;;
7931;SDS011;4011;49.424;10.894;2023-11-18T14:19:08;3.85;;;2.70;;
7931;SDS011;4011;49.424;10.894;2023-11-18T14:24:32;4.53;;;2.97;;
7931;SDS011;4011;49.424;10.894;2023-11-18T14:29:55;4.40;;;2.63;;
7931;SDS011;4011;49.424;10.894;2023-11-18T14:35:16;4.10;;;2.60;;
7931;SDS011;4011;49.424;10.894;2023-11-18T14:40:40;3.50;;;2.33;;
7931;SDS011;4011;49.424;10.894;2023-11-18T14:46:02;3.80;;;2.88;;
7931;SDS011;4011;49.424;10.894;2023-11-18T14:51:24;3.40;;;2.50;;
7931;SDS011;4011;49.424;10.894;2023-11-18T14:56:50;3.60;;;2.38;;
7931;SDS011;4011;49.424;10.894;2023-11-18T15:02:11;4.60;;;2.30;;
7931;SDS011;4011;49.424;10.894;2023-11-18T15:07:33;3.75;;;2.50;;
7931;SDS011;4011;49.424;10.894;2023-11-18T15:18:48;4.40;;;2.67;;
7931;SDS011;4011;49.424;10.894;2023-11-18T15:24:12;3.85;;;3.35;;
7931;SDS011;4011;49.424;10.894;2023-11-18T15:29:47;4.68;;;2.58;;
7931;SDS011;4011;49.424;10.894;2023-11-18T15:41:14;3.85;;;2.53;;
7931;SDS011;4011;49.424;10.894;2023-11-18T15:46:49;3.40;;;2.92;;
7931;SDS011;4011;49.424;10.894;2023-11-18T15:52:24;4.07;;;2.60;;
7931;SDS011;4011;49.424;10.894;2023-11-18T16:15:33;5.22;;;3.60;;
7931;SDS011;4011;49.424;10.894;2023-11-18T16:20:55;3.90;;;2.80;;
7931;SDS011;4011;49.424;10.894;2023-11-18T16:26:17;4.15;;;2.78;;
7931;SDS011;4011;49.424;10.894;2023-11-18T16:31:42;4.28;;;2.78;;
7931;SDS011;4011;49.424;10.894;2023-11-18T16:37:04;3.92;;;3.10;;
7931;SDS011;4011;49.424;10.894;2023-11-18T16:42:25;5.15;;;2.65;;
7931;SDS011;4011;49.424;10.894;2023-11-18T16:47:49;3.90;;;2.60;;
7931;SDS011;4011;49.424;10.894;2023-11-18T16:53:12;4.25;;;2.85;;
7931;SDS011;4011;49.424;10.894;2023-11-18T16:58:36;4.03;;;3.25;;
7931;SDS011;4011;49.424;10.894;2023-11-18T17:04:00;4.03;;;2.78;;
7931;SDS011;4011;49.424;10.894;2023-11-18T17:09:21;4.80;;;3.20;;
7931;SDS011;4011;49.424;10.894;2023-11-18T17:14:43;4.82;;;3.20;;
7931;SDS011;4011;49.424;10.894;2023-11-18T17:20:07;5.95;;;3.75;;
7931;SDS011;4011;49.424;10.894;2023-11-18T17:25:30;4.40;;;3.35;;
7931;SDS011;4011;49.424;10.894;2023-11-18T17:30:51;4.57;;;2.97;;
7931;SDS011;4011;49.424;10.894;2023-11-18T17:36:14;4.90;;;3.05;;
7931;SDS011;4011;49.424;10.894;2023-11-18T17:41:39;4.10;;;3.22;;
7931;SDS011;4011;49.424;10.894;2023-11-18T17:47:01;4.57;;;3.22;;
7931;SDS011;4011;49.424;10.894;2023-11-18T17:52:24;4.10;;;2.80;;
7931;SDS011;4011;49.424;10.894;2023-11-18T17:57:47;3.97;;;2.60;;
7931;SDS011;4011;49.424;10.894;2023-11-18T18:03:10;4.15;;;2.90;;
7931;SDS011;4011;49.424;10.894;2023-11-18T18:08:33;4.38;;;3.17;;
7931;SDS011;4011;49.424;10.894;2023-11-18T18:13:55;4.13;;;2.75;;
7931;SDS011;4011;49.424;10.894;2023-11-18T18:19:18;4.72;;;2.55;;
7931;SDS011;4011;49.424;10.894;2023-11-18T18:24:42;3.42;;;2.58;;
7931;SDS011;4011;49.424;10.894;2023-11-18T18:30:04;3.78;;;2.67;;
7931;SDS011;4011;49.424;10.894;2023-11-18T18:35:26;3.85;;;2.40;;
7931;SDS011;4011;49.424;10.894;2023-11-18T18:40:49;3.80;;;2.58;;
7931;SDS011;4011;49.424;10.894;2023-11-18T18:46:10;4.03;;;2.42;;
7931;SDS011;4011;49.424;10.894;2023-11-18T18:51:31;4.25;;;3.00;;
7931;SDS011;4011;49.424;10.894;2023-11-18T18:56:54;3.60;;;2.78;;
7931;SDS011;4011;49.424;10.894;2023-11-18T19:02:16;4.68;;;2.35;;
7931;SDS011;4011;49.424;10.894;2023-11-18T19:07:38;3.40;;;2.30;;
7931;SDS011;4011;49.424;10.894;2023-11-18T19:13:00;2.80;;;2.35;;
7931;SDS011;4011;49.424;10.894;2023-11-18T19:18:23;4.38;;;2.72;;
7931;SDS011;4011;49.424;10.894;2023-11-18T19:23:45;3.50;;;2.20;;
7931;SDS011;4011;49.424;10.894;2023-11-18T19:29:08;3.42;;;2.38;;
7931;SDS011;4011;49.424;10.894;2023-11-18T19:34:29;2.92;;;2.10;;
7931;SDS011;4011;49.424;10.894;2023-11-18T19:39:51;3.65;;;2.60;;
7931;SDS011;4011;49.424;10.894;2023-11-18T19:45:14;3.20;;;2.22;;
7931;SDS011;4011;49.424;10.894;2023-11-18T19:50:35;3.15;;;2.10;;
7931;SDS011;4011;49.424;10.894;2023-11-18T19:55:57;3.10;;;2.10;;
7931;SDS011;4011;49.424;10.894;2023-11-18T20:01:19;3.72;;;2.55;;
7931;SDS011;4011;49.424;10.894;2023-11-18T20:06:41;3.10;;;2.47;;
7931;SDS011;4011;49.424;10.894;2023-11-18T20:12:02;2.92;;;1.92;;
7931;SDS011;4011;49.424;10.894;2023-11-18T20:17:25;3.20;;;2.05;;
7931;SDS011;4011;49.424;10.894;2023-11-18T20:22:46;3.67;;;2.25;;
7931;SDS011;4011;49.424;10.894;2023-11-18T20:33:35;3.20;;;2.08;;
7931;SDS011;4011;49.424;10.894;2023-11-18T20:38:56;3.10;;;1.90;;
7931;SDS011;4011;49.424;10.894;2023-11-18T20:44:18;2.80;;;1.92;;
7931;SDS011;4011;49.424;10.894;2023-11-18T20:49:41;3.60;;;2.47;;
7931;SDS011;4011;49.424;10.894;2023-11-18T20:55:02;3.10;;;2.05;;
7931;SDS011;4011;49.424;10.894;2023-11-18T21:00:24;2.75;;;1.85;;
7931;SDS011;4011;49.424;10.894;2023-11-18T21:05:47;2.80;;;2.10;;
7931;SDS011;4011;49.424;10.894;2023-11-18T21:11:08;4.28;;;2.55;;
7931;SDS011;4011;49.424;10.894;2023-11-18T21:16:31;3.33;;;2.63;;
7931;SDS011;4011;49.424;10.894;2023-11-18T21:21:54;3.10;;;2.00;;
7931;SDS011;4011;49.424;10.894;2023-11-18T21:27:15;3.00;;;2.17;;
7931;SDS011;4011;49.424;10.894;2023-11-18T21:32:37;3.00;;;2.05;;
7931;SDS011;4011;49.424;10.894;2023-11-18T21:38:03;3.50;;;2.63;;
7931;SDS011;4011;49.424;10.894;2023-11-18T21:43:25;3.20;;;2.03;;
7931;SDS011;4011;49.424;10.894;2023-11-18T21:48:46;3.53;;;1.90;;
7931;SDS011;4011;49.424;10.894;2023-11-18T21:54:09;2.88;;;2.00;;
7931;SDS011;4011;49.424;10.894;2023-11-18T21:59:30;3.20;;;2.63;;
7931;SDS011;4011;49.424;10.894;2023-11-18T22:04:52;2.78;;;1.80;;
7931;SDS011;4011;49.424;10.894;2023-11-18T22:10:15;2.70;;;1.70;;
7931;SDS011;4011;49.424;10.894;2023-11-18T22:15:37;2.83;;;1.85;;
7931;SDS011;4011;49.424;10.894;2023-11-18T22:20:59;3.50;;;2.55;;
7931;SDS011;4011;49.424;10.894;2023-11-18T22:26:22;3.13;;;2.40;;
7931;SDS011;4011;49.424;10.894;2023-11-18T22:31:44;2.25;;;1.77;;
7931;SDS011;4011;49.424;10.894;2023-11-18T22:37:06;2.88;;;1.80;;
7931;SDS011;4011;49.424;10.894;2023-11-18T22:42:28;2.90;;;2.10;;
7931;SDS011;4011;49.424;10.894;2023-11-18T22:47:53;2.80;;;2.38;;
7931;SDS011;4011;49.424;10.894;2023-11-18T22:53:14;2.97;;;1.90;;
7931;SDS011;4011;49.424;10.894;2023-11-18T22:58:39;2.65;;;1.73;;
7931;SDS011;4011;49.424;10.894;2023-11-18T23:04:01;3.28;;;2.10;;
7931;SDS011;4011;49.424;10.894;2023-11-18T23:09:31;2.92;;;2.15;;
7931;SDS011;4011;49.424;10.894;2023-11-18T23:14:54;2.50;;;1.70;;
7931;SDS011;4011;49.424;10.894;2023-11-18T23:20:15;3.00;;;1.60;;
7931;SDS011;4011;49.424;10.894;2023-11-18T23:25:38;2.92;;;2.35;;
7931;SDS011;4011;49.424;10.894;2023-11-18T23:31:01;3.20;;;2.38;;
7931;SDS011;4011;49.424;10.894;2023-11-18T23:36:24;2.53;;;1.80;;
7931;SDS011;4011;49.424;10.894;2023-11-18T23:41:46;2.85;;;1.73;;
7931;SDS011;4011;49.424;10.894;2023-11-18T23:47:09;2.90;;;1.98;;
7931;SDS011;4011;49.424;10.894;2023-11-18T23:52:30;3.63;;;2.25;;
7931;SDS011;4011;49.424;10.894;2023-11-18T23:57:51;2.55;;;1.70;;
